createdAt,value
2018-03-22T00:00:10.968Z,91.3
2018-03-22T00:01:10.928Z,90.82
2018-03-22T00:02:10.907Z,90.26
2018-03-22T00:03:10.887Z,90.92
2018-03-22T00:04:10.868Z,91.11
2018-03-22T00:05:10.856Z,91.77
2018-03-22T00:06:10.829Z,90.45
2018-03-22T00:07:10.807Z,90.07
2018-03-22T00:08:10.790Z,90.07
2018-03-22T00:09:10.770Z,91.3
2018-03-22T00:10:10.746Z,91.3
2018-03-22T00:11:10.469Z,90.35
2018-03-22T00:12:10.710Z,89.22
2018-03-22T00:13:10.428Z,88.56
2018-03-22T00:14:10.667Z,89.22
2018-03-22T00:15:10.648Z,89.12
2018-03-22T00:16:10.629Z,88.18
2018-03-22T00:17:10.619Z,87.71
2018-03-22T00:18:10.588Z,86.86
2018-03-22T00:19:10.567Z,86.86
2018-03-22T00:20:10.549Z,86.38
2018-03-22T00:21:10.529Z,86.76
2018-03-22T00:22:10.249Z,87.24
2018-03-22T00:23:10.229Z,87.24
2018-03-22T00:24:10.469Z,86.67
2018-03-22T00:25:10.452Z,88.28
2018-03-22T00:26:10.436Z,87.52
2018-03-22T00:27:10.417Z,87.14
2018-03-22T00:28:10.181Z,87.05
2018-03-22T00:29:10.371Z,88.37
2018-03-22T00:30:10.349Z,87.9
2018-03-22T00:31:10.070Z,87.8
2018-03-22T00:32:10.310Z,87.99
2018-03-22T00:33:10.287Z,87.9
2018-03-22T00:34:10.005Z,86.95
2018-03-22T00:35:09.986Z,87.05
2018-03-22T00:36:10.221Z,87.33
2018-03-22T00:37:10.200Z,87.8
2018-03-22T00:38:10.181Z,88.56
2018-03-22T00:39:09.901Z,87.52
2018-03-22T00:40:09.882Z,87.05
2018-03-22T00:41:10.120Z,86.38
2018-03-22T00:42:10.105Z,85.82
2018-03-22T00:43:09.823Z,86.1
2018-03-22T00:44:10.061Z,86.67
2018-03-22T00:45:10.040Z,86.29
2018-03-22T00:46:10.021Z,86.95
2018-03-22T00:47:10.006Z,86.86
2018-03-22T00:48:09.982Z,86.95
2018-03-22T00:49:09.968Z,87.24
2018-03-22T00:50:09.945Z,87.05
2018-03-22T00:51:09.663Z,87.14
2018-03-22T00:52:09.901Z,87.24
2018-03-22T00:53:09.884Z,87.71
2018-03-22T00:54:09.618Z,88.56
2018-03-22T00:55:09.583Z,88.28
2018-03-22T00:56:09.822Z,88.28
2018-03-22T00:57:09.800Z,87.62
2018-03-22T00:58:09.781Z,87.62
2018-03-22T00:59:09.761Z,87.24
2018-03-22T01:00:09.485Z,87.8
2018-03-22T01:01:09.462Z,87.8
2018-03-22T01:02:09.700Z,86.76
2018-03-22T01:03:09.684Z,86.86
2018-03-22T01:04:09.403Z,87.05
2018-03-22T01:05:09.383Z,86.1
2018-03-22T01:06:09.621Z,85.35
2018-03-22T01:07:09.607Z,84.78
2018-03-22T01:08:09.583Z,84.78
2018-03-22T01:09:09.304Z,85.63
2018-03-22T01:10:09.545Z,85.35
2018-03-22T01:11:09.521Z,84.97
2018-03-22T01:12:09.505Z,84.78
2018-03-22T01:13:09.486Z,84.31
2018-03-22T01:14:09.460Z,84.12
2018-03-22T01:15:09.440Z,83.17
2018-03-22T01:16:09.421Z,83.27
2018-03-22T01:17:09.143Z,83.17
2018-03-22T01:18:09.387Z,83.08
2018-03-22T01:19:09.410Z,83.74
2018-03-22T01:20:09.342Z,84.5
2018-03-22T01:21:09.064Z,84.31
2018-03-22T01:22:09.307Z,84.78
2018-03-22T01:23:09.281Z,83.55
2018-03-22T01:24:09.261Z,82.7
2018-03-22T01:25:09.244Z,83.17
2018-03-22T01:26:09.220Z,83.36
2018-03-22T01:27:09.201Z,84.5
2018-03-22T01:28:09.187Z,84.5
2018-03-22T01:29:08.904Z,83.65
2018-03-22T01:30:09.141Z,84.31
2018-03-22T01:31:09.121Z,84.97
2018-03-22T01:32:09.106Z,84.59
2018-03-22T01:33:08.824Z,85.44
2018-03-22T01:34:09.061Z,84.69
2018-03-22T01:35:09.043Z,85.16
2018-03-22T01:36:09.023Z,84.97
2018-03-22T01:37:09.007Z,85.06
2018-03-22T01:38:08.984Z,85.53
2018-03-22T01:39:08.964Z,86.38
2018-03-22T01:40:08.941Z,86.01
2018-03-22T01:41:08.921Z,84.88
2018-03-22T01:42:08.899Z,84.41
2018-03-22T01:43:08.884Z,85.25
2018-03-22T01:44:08.862Z,85.35
2018-03-22T01:45:08.841Z,86.48
2018-03-22T01:46:08.821Z,86.29
2018-03-22T01:47:08.808Z,85.82
2018-03-22T01:48:08.781Z,85.35
2018-03-22T01:49:08.763Z,85.35
2018-03-22T01:50:08.745Z,84.97
2018-03-22T01:51:08.463Z,85.35
2018-03-22T01:52:08.700Z,85.25
2018-03-22T01:53:08.680Z,85.35
2018-03-22T01:54:08.663Z,86.19
2018-03-22T01:55:08.383Z,85.91
2018-03-22T01:56:08.621Z,85.63
2018-03-22T01:57:08.342Z,85.4
2018-03-22T01:58:08.325Z,85.63
2018-03-22T01:59:08.559Z,86.44
2018-03-22T02:00:08.541Z,87.1
2018-03-22T02:01:08.263Z,86.63
2018-03-22T02:02:08.243Z,87.48
2018-03-22T02:03:08.479Z,87.85
2018-03-22T02:04:08.202Z,87.57
2018-03-22T02:05:08.183Z,88.04
2018-03-22T02:06:08.163Z,88.32
2018-03-22T02:07:08.142Z,87.76
2018-03-22T02:08:08.380Z,87.76
2018-03-22T02:09:08.360Z,87.48
2018-03-22T02:10:08.408Z,88.51
2018-03-22T02:11:08.319Z,88.89
2018-03-22T02:12:08.300Z,90.12
2018-03-22T02:13:08.279Z,89.55
2018-03-22T02:14:08.260Z,88.89
2018-03-22T02:15:08.239Z,87.95
2018-03-22T02:16:07.961Z,88.32
2018-03-22T02:17:07.942Z,87.95
2018-03-22T02:18:08.179Z,87.95
2018-03-22T02:19:08.160Z,87.95
2018-03-22T02:20:08.139Z,87.76
2018-03-22T02:21:08.119Z,87.38
2018-03-22T02:22:07.842Z,87.19
2018-03-22T02:23:07.821Z,88.04
2018-03-22T02:24:08.058Z,88.04
2018-03-22T02:25:07.780Z,87.29
2018-03-22T02:26:08.019Z,86.82
2018-03-22T02:27:07.999Z,86.91
2018-03-22T02:28:07.719Z,87.29
2018-03-22T02:29:07.699Z,87.1
2018-03-22T02:30:07.940Z,86.82
2018-03-22T02:31:07.659Z,86.82
2018-03-22T02:32:07.638Z,87
2018-03-22T02:33:07.881Z,87.95
2018-03-22T02:34:07.865Z,87.19
2018-03-22T02:35:07.838Z,87.1
2018-03-22T02:36:07.819Z,87
2018-03-22T02:37:07.539Z,86.25
2018-03-22T02:38:07.780Z,85.96
2018-03-22T02:39:07.759Z,87.1
2018-03-22T02:40:07.478Z,86.72
2018-03-22T02:41:07.459Z,86.76
2018-03-22T02:42:07.697Z,86.44
2018-03-22T02:43:07.676Z,86.06
2018-03-22T02:44:07.655Z,86.1
2018-03-22T02:45:07.379Z,85.53
2018-03-22T02:46:07.356Z,85.16
2018-03-22T02:47:07.599Z,86.72
2018-03-22T02:48:07.577Z,87.14
2018-03-22T02:49:07.554Z,86.57
2018-03-22T02:50:07.276Z,86.91
2018-03-22T02:51:07.590Z,86.38
2018-03-22T02:52:07.236Z,86.06
2018-03-22T02:53:07.215Z,86.29
2018-03-22T02:54:07.456Z,86.29
2018-03-22T02:55:07.174Z,87.29
2018-03-22T02:56:07.437Z,87.57
2018-03-22T02:57:07.416Z,88.09
2018-03-22T02:58:07.372Z,88.04
2018-03-22T02:59:07.095Z,86.86
2018-03-22T03:00:07.345Z,86.67
2018-03-22T03:01:07.319Z,86.57
2018-03-22T03:02:07.294Z,86.48
2018-03-22T03:03:07.278Z,86.38
2018-03-22T03:04:07.266Z,85.72
2018-03-22T03:05:06.973Z,85.35
2018-03-22T03:06:07.215Z,86.1
2018-03-22T03:07:07.190Z,85.91
2018-03-22T03:08:07.173Z,85.06
2018-03-22T03:09:06.891Z,85.25
2018-03-22T03:10:07.129Z,85.25
2018-03-22T03:11:06.852Z,85.72
2018-03-22T03:12:07.089Z,86.86
2018-03-22T03:13:06.811Z,86.86
2018-03-22T03:14:06.792Z,86.38
2018-03-22T03:15:07.032Z,86.19
2018-03-22T03:16:07.012Z,85.06
2018-03-22T03:17:06.996Z,85.16
2018-03-22T03:18:06.967Z,85.06
2018-03-22T03:19:06.950Z,84.88
2018-03-22T03:20:06.930Z,84.59
2018-03-22T03:21:06.909Z,84.97
2018-03-22T03:22:06.889Z,84.69
2018-03-22T03:23:06.868Z,84.78
2018-03-22T03:24:06.856Z,85.44
2018-03-22T03:25:06.828Z,85.06
2018-03-22T03:26:06.810Z,85.44
2018-03-22T03:27:06.787Z,85.16
2018-03-22T03:28:06.766Z,85.06
2018-03-22T03:29:06.490Z,85.35
2018-03-22T03:30:06.744Z,84.88
2018-03-22T03:31:06.711Z,85.63
2018-03-22T03:32:06.686Z,86.86
2018-03-22T03:33:06.668Z,85.91
2018-03-22T03:34:06.388Z,86.38
2018-03-22T03:35:06.631Z,85.44
2018-03-22T03:36:06.349Z,84.69
2018-03-22T03:37:06.588Z,84.97
2018-03-22T03:38:06.309Z,85.06
2018-03-22T03:39:06.546Z,84.69
2018-03-22T03:40:06.279Z,84.69
2018-03-22T03:41:06.507Z,84.59
2018-03-22T03:42:06.545Z,83.93
2018-03-22T03:43:06.468Z,82.89
2018-03-22T03:44:06.445Z,82.51
2018-03-22T03:45:06.426Z,82.7
2018-03-22T03:46:06.149Z,83.46
2018-03-22T03:47:06.392Z,83.65
2018-03-22T03:48:06.367Z,84.41
2018-03-22T03:49:06.346Z,84.97
2018-03-22T03:50:06.068Z,84.78
2018-03-22T03:51:06.307Z,84.78
2018-03-22T03:52:06.286Z,85.16
2018-03-22T03:53:06.009Z,84.78
2018-03-22T03:54:06.248Z,84.31
2018-03-22T03:55:05.971Z,83.84
2018-03-22T03:56:06.208Z,84.22
2018-03-22T03:57:05.930Z,83.84
2018-03-22T03:58:05.911Z,83.17
2018-03-22T03:59:06.148Z,83.55
2018-03-22T04:00:06.132Z,83.93
2018-03-22T04:01:06.108Z,83.46
2018-03-22T04:02:05.831Z,83.08
2018-03-22T04:03:06.075Z,83.36
2018-03-22T04:04:05.791Z,84.03
2018-03-22T04:05:06.032Z,84.59
2018-03-22T04:06:06.010Z,84.5
2018-03-22T04:07:06.000Z,84.12
2018-03-22T04:08:05.712Z,84.5
2018-03-22T04:09:05.949Z,83.55
2018-03-22T04:10:05.672Z,83.65
2018-03-22T04:11:05.915Z,83.93
2018-03-22T04:12:05.639Z,83.93
2018-03-22T04:13:05.870Z,84.22
2018-03-22T04:14:05.852Z,85.16
2018-03-22T04:15:05.829Z,85.16
2018-03-22T04:16:05.551Z,85.63
2018-03-22T04:17:05.537Z,85.25
2018-03-22T04:18:05.512Z,83.74
2018-03-22T04:19:05.752Z,83.84
2018-03-22T04:20:05.733Z,83.93
2018-03-22T04:21:05.710Z,83.17
2018-03-22T04:22:05.690Z,84.41
2018-03-22T04:23:05.412Z,83.93
2018-03-22T04:24:05.393Z,83.84
2018-03-22T04:25:05.372Z,83.84
2018-03-22T04:26:05.611Z,83.74
2018-03-22T04:27:05.332Z,84.78
2018-03-22T04:28:05.574Z,84.5
2018-03-22T04:29:05.292Z,83.84
2018-03-22T04:30:05.532Z,83.84
2018-03-22T04:31:05.252Z,83.84
2018-03-22T04:32:05.492Z,83.17
2018-03-22T04:33:05.212Z,83.46
2018-03-22T04:34:05.455Z,83.27
2018-03-22T04:35:05.173Z,83.46
2018-03-22T04:36:05.151Z,83.36
2018-03-22T04:37:05.389Z,83.08
2018-03-22T04:38:05.375Z,82.99
2018-03-22T04:39:05.350Z,83.17
2018-03-22T04:40:05.071Z,82.8
2018-03-22T04:41:05.314Z,82.7
2018-03-22T04:42:05.032Z,82.7
2018-03-22T04:43:05.270Z,82.61
2018-03-22T04:44:05.250Z,82.61
2018-03-22T04:45:05.234Z,82.04
2018-03-22T04:46:05.208Z,81.95
2018-03-22T04:47:05.190Z,81.95
2018-03-22T04:48:05.175Z,82.23
2018-03-22T04:49:05.149Z,82.14
2018-03-22T04:50:04.870Z,81.85
2018-03-22T04:51:04.850Z,82.61
2018-03-22T04:52:05.088Z,82.23
2018-03-22T04:53:04.810Z,82.51
2018-03-22T04:54:04.790Z,82.7
2018-03-22T04:55:04.773Z,82.89
2018-03-22T04:56:04.749Z,82.89
2018-03-22T04:57:04.992Z,83.55
2018-03-22T04:58:04.981Z,83.84
2018-03-22T04:59:04.957Z,83.55
2018-03-22T05:00:04.669Z,82.99
2018-03-22T05:01:04.911Z,82.7
2018-03-22T05:02:04.636Z,83.08
2018-03-22T05:03:04.609Z,82.7
2018-03-22T05:04:04.589Z,82.8
2018-03-22T05:05:04.826Z,82.7
2018-03-22T05:06:04.806Z,82.89
2018-03-22T05:07:04.791Z,82.99
2018-03-22T05:08:04.513Z,82.61
2018-03-22T05:09:04.743Z,83.46
2018-03-22T05:10:04.738Z,82.51
2018-03-22T05:11:04.705Z,82.51
2018-03-22T05:12:04.686Z,83.08
2018-03-22T05:13:04.408Z,83.27
2018-03-22T05:14:04.645Z,83.08
2018-03-22T05:15:04.631Z,82.99
2018-03-22T05:16:04.608Z,83.17
2018-03-22T05:17:04.586Z,82.99
2018-03-22T05:18:04.568Z,83.08
2018-03-22T05:19:04.554Z,83.08
2018-03-22T05:20:04.525Z,82.42
2018-03-22T05:21:04.507Z,83.65
2018-03-22T05:22:04.485Z,84.5
2018-03-22T05:23:04.466Z,83.74
2018-03-22T05:24:04.186Z,83.08
2018-03-22T05:25:04.575Z,82.7
2018-03-22T05:26:04.147Z,82.8
2018-03-22T05:27:04.127Z,82.89
2018-03-22T05:28:04.107Z,81.95
2018-03-22T05:29:04.089Z,81.29
2018-03-22T05:30:04.326Z,81.67
2018-03-22T05:31:04.310Z,81.2
2018-03-22T05:32:04.027Z,81.95
2018-03-22T05:33:04.270Z,81.76
2018-03-22T05:34:04.250Z,81.29
2018-03-22T05:35:04.229Z,82.04
2018-03-22T05:36:04.210Z,81.95
2018-03-22T05:37:04.188Z,83.17
2018-03-22T05:38:04.194Z,82.14
2018-03-22T05:39:04.145Z,81.2
2018-03-22T05:40:04.133Z,80.91
2018-03-22T05:41:03.848Z,80.53
2018-03-22T05:42:04.086Z,80.91
2018-03-22T05:43:03.809Z,82.42
2018-03-22T05:44:04.047Z,82.42
2018-03-22T05:45:03.768Z,81.76
2018-03-22T05:46:04.007Z,81.48
2018-03-22T05:47:03.988Z,81.29
2018-03-22T05:48:03.709Z,81.48
2018-03-22T05:49:03.947Z,80.82
2018-03-22T05:50:03.926Z,82.14
2018-03-22T05:51:03.917Z,81.38
2018-03-22T05:52:03.890Z,82.18
2018-03-22T05:53:03.609Z,82.23
2018-03-22T05:54:03.849Z,82.37
2018-03-22T05:55:03.828Z,81.23
2018-03-22T05:56:03.810Z,80.1
2018-03-22T05:57:03.787Z,80.57
2018-03-22T05:58:03.833Z,80.1
2018-03-22T05:59:03.495Z,79.82
2018-03-22T06:00:03.734Z,78.78
2018-03-22T06:01:03.714Z,79.06
2018-03-22T06:02:03.692Z,79.06
2018-03-22T06:03:03.427Z,78.68
2018-03-22T06:04:03.395Z,78.97
2018-03-22T06:05:03.375Z,78.02
2018-03-22T06:06:03.619Z,79.44
2018-03-22T06:07:03.603Z,79.53
2018-03-22T06:08:03.584Z,79.16
2018-03-22T06:09:03.565Z,78.68
2018-03-22T06:10:03.545Z,78.31
2018-03-22T06:11:03.524Z,77.93
2018-03-22T06:12:03.511Z,78.59
2018-03-22T06:13:03.485Z,78.97
2018-03-22T06:14:03.462Z,78.12
2018-03-22T06:15:03.183Z,77.74
2018-03-22T06:16:03.422Z,77.36
2018-03-22T06:17:03.411Z,78.31
2018-03-22T06:18:03.127Z,79.06
2018-03-22T06:19:03.365Z,78.4
2018-03-22T06:20:03.345Z,77.74
2018-03-22T06:21:03.333Z,78.12
2018-03-22T06:22:03.309Z,78.5
2018-03-22T06:23:03.289Z,78.78
2018-03-22T06:24:03.012Z,78.97
2018-03-22T06:25:03.264Z,78.4
2018-03-22T06:26:03.232Z,77.93
2018-03-22T06:27:03.211Z,77.83
2018-03-22T06:28:03.201Z,77.64
2018-03-22T06:29:03.179Z,77.55
2018-03-22T06:30:03.157Z,77.74
2018-03-22T06:31:02.878Z,78.4
2018-03-22T06:32:03.117Z,78.12
2018-03-22T06:33:03.098Z,78.21
2018-03-22T06:34:02.820Z,78.4
2018-03-22T06:35:03.060Z,77.74
2018-03-22T06:36:02.783Z,77.45
2018-03-22T06:37:03.026Z,77.26
2018-03-22T06:38:03.002Z,77.74
2018-03-22T06:39:02.990Z,79.25
2018-03-22T06:40:02.976Z,79.06
2018-03-22T06:41:02.950Z,78.97
2018-03-22T06:42:02.669Z,78.68
2018-03-22T06:43:02.659Z,78.4
2018-03-22T06:44:02.889Z,78.31
2018-03-22T06:45:02.875Z,78.68
2018-03-22T06:46:02.854Z,78.59
2018-03-22T06:47:02.834Z,78.87
2018-03-22T06:48:02.814Z,79.25
2018-03-22T06:49:02.798Z,79.06
2018-03-22T06:50:02.777Z,78.02
2018-03-22T06:51:02.500Z,77.55
2018-03-22T06:52:02.738Z,77.55
2018-03-22T06:53:02.732Z,77.26
2018-03-22T06:54:02.705Z,78.21
2018-03-22T06:55:02.685Z,78.72
2018-03-22T06:56:02.665Z,78.34
2018-03-22T06:57:02.666Z,78.06
2018-03-22T06:58:02.629Z,77.78
2018-03-22T06:59:02.606Z,77.21
2018-03-22T07:00:02.588Z,77.4
2018-03-22T07:01:02.312Z,77.02
2018-03-22T07:02:02.314Z,76.64
2018-03-22T07:03:02.535Z,77.02
2018-03-22T07:04:02.515Z,78.34
2018-03-22T07:05:02.504Z,78.81
2018-03-22T07:06:02.477Z,76.83
2018-03-22T07:07:02.471Z,77.02
2018-03-22T07:08:02.441Z,77.78
2018-03-22T07:09:02.429Z,77.4
2018-03-22T07:10:02.144Z,77.21
2018-03-22T07:11:02.387Z,77.4
2018-03-22T07:12:02.369Z,77.59
2018-03-22T07:13:02.347Z,77.02
2018-03-22T07:14:02.078Z,76.26
2018-03-22T07:15:02.311Z,75.42
2018-03-22T07:16:02.300Z,74.76
2018-03-22T07:17:02.274Z,75.23
2018-03-22T07:18:02.257Z,75.23
2018-03-22T07:19:02.242Z,76.31
2018-03-22T07:20:01.964Z,77.4
2018-03-22T07:21:01.944Z,78.44
2018-03-22T07:22:02.184Z,78.63
2018-03-22T07:23:01.908Z,77.31
2018-03-22T07:24:02.148Z,78.48
2018-03-22T07:25:02.129Z,78.63
2018-03-22T07:26:02.153Z,79.95
2018-03-22T07:27:02.094Z,81.27
2018-03-22T07:28:02.075Z,81.84
2018-03-22T07:29:02.057Z,82.22
2018-03-22T07:30:02.045Z,81.37
2018-03-22T07:31:02.022Z,81.65
2018-03-22T07:32:01.748Z,82.69
2018-03-22T07:33:01.985Z,82.12
2018-03-22T07:34:01.732Z,81.74
2018-03-22T07:35:01.949Z,83.17
2018-03-22T07:36:01.932Z,83.36
2018-03-22T07:37:01.724Z,82.5
2018-03-22T07:38:01.897Z,83.92
2018-03-22T07:39:01.881Z,84.11
2018-03-22T07:40:01.860Z,83.92
2018-03-22T07:41:01.843Z,84.68
2018-03-22T07:42:01.850Z,83.36
2018-03-22T07:43:01.805Z,83.26
2018-03-22T07:44:01.785Z,84.58
2018-03-22T07:45:01.511Z,84.77
2018-03-22T07:46:01.492Z,85.34
2018-03-22T07:47:01.478Z,86.85
2018-03-22T07:48:01.457Z,86.57
2018-03-22T07:49:01.696Z,86.19
2018-03-22T07:50:01.679Z,86.38
2018-03-22T07:51:01.403Z,85.24
2018-03-22T07:52:01.644Z,85.43
2018-03-22T07:53:01.369Z,85.62
2018-03-22T07:54:01.350Z,84.96
2018-03-22T07:55:01.586Z,85.53
2018-03-22T07:56:01.572Z,86.66
2018-03-22T07:57:01.550Z,86.47
2018-03-22T07:58:01.273Z,84.68
2018-03-22T07:59:01.550Z,84.06
2018-03-22T08:00:01.238Z,84.16
2018-03-22T08:01:01.478Z,84.91
2018-03-22T08:02:01.460Z,84.63
2018-03-22T08:03:01.443Z,83.68
2018-03-22T08:04:01.426Z,83.4
2018-03-22T08:05:01.407Z,84.91
2018-03-22T08:06:01.422Z,84.58
2018-03-22T08:07:01.376Z,82.87
2018-03-22T08:08:01.096Z,82.4
2018-03-22T08:09:01.338Z,82.4
2018-03-22T08:10:01.328Z,80.6
2018-03-22T08:11:01.302Z,81.93
2018-03-22T08:12:01.028Z,82.31
2018-03-22T08:13:01.267Z,82.21
2018-03-22T08:14:01.252Z,82.12
2018-03-22T08:15:01.241Z,81.93
2018-03-22T08:16:01.218Z,80.13
2018-03-22T08:17:01.202Z,80.36
2018-03-22T08:18:00.927Z,80.74
2018-03-22T08:19:00.912Z,80.13
2018-03-22T08:20:01.150Z,81.55
2018-03-22T08:21:00.877Z,82.4
2018-03-22T08:22:01.118Z,83.15
2018-03-22T08:23:00.844Z,85.05
2018-03-22T08:24:01.117Z,86.66
2018-03-22T08:25:00.810Z,88.55
2018-03-22T08:26:01.062Z,89.31
2018-03-22T08:27:01.034Z,91.58
2018-03-22T08:28:01.022Z,92.52
2018-03-22T08:29:00.743Z,91.43
2018-03-22T08:30:00.983Z,92.99
2018-03-22T08:31:00.967Z,93.23
2018-03-22T08:32:00.692Z,93.32
2018-03-22T08:33:00.676Z,93.61
2018-03-22T08:34:00.919Z,95.03
2018-03-22T08:35:00.955Z,94.65
2018-03-22T08:36:00.625Z,94.46
2018-03-22T08:37:00.613Z,94.93
2018-03-22T08:38:00.593Z,96.07
2018-03-22T08:39:00.574Z,98.33
2018-03-22T08:40:00.822Z,98.05
2018-03-22T08:41:00.540Z,97.77
2018-03-22T08:42:00.524Z,97.77
2018-03-22T08:43:00.771Z,98.81
2018-03-22T08:44:00.747Z,99.38
2018-03-22T08:45:00.480Z,98.9
2018-03-22T08:46:00.720Z,98.81
2018-03-22T08:47:00.704Z,98.81
2018-03-22T08:48:00.680Z,98.62
2018-03-22T08:49:00.672Z,99.38
2018-03-22T08:50:00.648Z,99.99
2018-03-22T08:51:00.629Z,99.99
2018-03-22T08:52:00.614Z,99.99
2018-03-22T08:53:00.597Z,99.99
2018-03-22T08:54:00.579Z,99.99
2018-03-22T08:55:00.304Z,99.99
2018-03-22T08:56:00.287Z,99.99
2018-03-22T08:57:00.530Z,99.99
2018-03-22T08:58:00.510Z,99.99
2018-03-22T08:59:00.502Z,99.99
2018-03-22T09:00:00.483Z,99.99
2018-03-22T09:01:00.460Z,99.99
2018-03-22T09:02:00.187Z,99.99
2018-03-22T09:03:00.168Z,99.99
2018-03-22T09:04:00.150Z,99.99
2018-03-22T09:05:00.394Z,99.99
2018-03-22T09:06:00.376Z,99.99
2018-03-22T09:07:00.357Z,99.99
2018-03-22T09:08:00.341Z,99.99
2018-03-22T09:09:00.066Z,99.99
2018-03-22T09:10:00.049Z,99.99
2018-03-22T09:11:00.289Z,99.99
2018-03-22T09:12:00.290Z,99.99
2018-03-22T09:12:59.999Z,99.99
2018-03-22T09:14:00.238Z,99.99
2018-03-22T09:15:00.223Z,99.99
2018-03-22T09:16:00.218Z,99.33
2018-03-22T09:17:00.188Z,98.96
2018-03-22T09:17:59.914Z,99.15
2018-03-22T09:19:00.165Z,98.39
2018-03-22T09:20:00.138Z,97.72
2018-03-22T09:21:00.121Z,98.01
2018-03-22T09:21:59.860Z,98.01
2018-03-22T09:22:59.828Z,98.01
2018-03-22T09:24:00.072Z,96.69
2018-03-22T09:24:59.796Z,95.74
2018-03-22T09:25:59.779Z,95.93
2018-03-22T09:27:00.025Z,96.88
2018-03-22T09:28:00.006Z,97.34
2018-03-22T09:28:59.731Z,97.44
2018-03-22T09:29:59.975Z,98.1
2018-03-22T09:30:59.956Z,98.01
2018-03-22T09:31:59.681Z,98.2
2018-03-22T09:32:59.922Z,98.58
2018-03-22T09:33:59.649Z,97.72
2018-03-22T09:34:59.891Z,99.15
2018-03-22T09:35:59.873Z,98.29
2018-03-22T09:36:59.599Z,98.58
2018-03-22T09:37:59.585Z,99.8
2018-03-22T09:38:59.565Z,99.99
2018-03-22T09:39:59.807Z,99.99
2018-03-22T09:40:59.789Z,99.99
2018-03-22T09:41:59.787Z,99.99
2018-03-22T09:42:59.756Z,99.99
2018-03-22T09:43:59.739Z,99.99
2018-03-22T09:44:59.465Z,99.99
2018-03-22T09:45:59.454Z,99.99
2018-03-22T09:46:59.694Z,99.99
2018-03-22T09:47:59.674Z,99.99
2018-03-22T09:48:59.662Z,99.99
2018-03-22T09:49:59.641Z,99.99
2018-03-22T09:50:59.623Z,99.99
2018-03-22T09:51:59.606Z,99.99
2018-03-22T09:52:59.591Z,99.99
2018-03-22T09:53:59.572Z,99.99
2018-03-22T09:54:59.299Z,99.99
2018-03-22T09:55:59.544Z,99.99
2018-03-22T09:56:59.622Z,99.99
2018-03-22T09:57:59.512Z,99.99
2018-03-22T09:58:59.492Z,99.99
2018-03-22T09:59:59.214Z,99.99
2018-03-22T10:00:59.202Z,99.99
2018-03-22T10:01:59.183Z,99.99
2018-03-22T10:02:59.430Z,99.99
2018-03-22T10:03:59.406Z,99.99
2018-03-22T10:04:59.387Z,99.99
2018-03-22T10:05:59.371Z,99.99
2018-03-22T10:06:59.353Z,99.99
2018-03-22T10:07:59.337Z,99.99
2018-03-22T10:08:59.319Z,99.99
2018-03-22T10:09:59.303Z,99.99
2018-03-22T10:10:59.027Z,99.99
2018-03-22T10:11:59.278Z,99.99
2018-03-22T10:12:59.252Z,99.99
2018-03-22T10:13:58.980Z,99.99
2018-03-22T10:14:59.217Z,99.99
2018-03-22T10:15:58.942Z,99.99
2018-03-22T10:16:59.187Z,99.99
2018-03-22T10:17:59.166Z,99.99
2018-03-22T10:18:59.150Z,99.99
2018-03-22T10:19:59.132Z,99.99
2018-03-22T10:20:58.857Z,99.99
2018-03-22T10:21:59.098Z,99.99
2018-03-22T10:22:59.079Z,99.99
2018-03-22T10:23:59.065Z,99.99
2018-03-22T10:24:59.047Z,99.99
2018-03-22T10:25:59.036Z,99.99
2018-03-22T10:26:59.017Z,99.99
2018-03-22T10:27:58.995Z,99.99
2018-03-22T10:28:58.982Z,99.99
2018-03-22T10:29:58.960Z,99.99
2018-03-22T10:30:58.944Z,99.99
2018-03-22T10:31:58.931Z,99.99
2018-03-22T10:32:58.653Z,99.99
2018-03-22T10:33:58.893Z,99.99
2018-03-22T10:34:58.618Z,99.99
2018-03-22T10:35:58.965Z,99.99
2018-03-22T10:36:58.843Z,99.99
2018-03-22T10:37:58.569Z,99.99
2018-03-22T10:38:58.551Z,99.99
2018-03-22T10:39:58.795Z,99.99
2018-03-22T10:40:58.777Z,99.99
2018-03-22T10:41:58.822Z,99.99
2018-03-22T10:42:58.742Z,99.99
2018-03-22T10:43:58.467Z,99.99
2018-03-22T10:44:58.709Z,99.99
2018-03-22T10:45:58.691Z,99.99
2018-03-22T10:46:58.680Z,99.99
2018-03-22T10:47:58.658Z,99.99
2018-03-22T10:48:58.642Z,99.99
2018-03-22T10:49:58.625Z,99.99
2018-03-22T10:50:58.607Z,99.99
2018-03-22T10:51:58.346Z,99.99
2018-03-22T10:52:58.321Z,99.99
2018-03-22T10:53:58.607Z,99.99
2018-03-22T10:54:58.542Z,99.99
2018-03-22T10:55:58.525Z,99.99
2018-03-22T10:56:58.508Z,99.99
2018-03-22T10:57:58.493Z,99.99
2018-03-22T10:58:58.476Z,99.99
2018-03-22T10:59:58.466Z,99.99
2018-03-22T11:00:58.445Z,99.99
2018-03-22T11:01:58.431Z,99.99
2018-03-22T11:02:58.151Z,99.99
2018-03-22T11:03:58.392Z,99.99
2018-03-22T11:04:58.118Z,99.99
2018-03-22T11:05:58.359Z,99.99
2018-03-22T11:06:58.342Z,99.99
2018-03-22T11:07:58.067Z,99.99
2018-03-22T11:08:58.050Z,99.99
2018-03-22T11:09:58.037Z,99.99
2018-03-22T11:10:58.274Z,99.99
2018-03-22T11:11:58.000Z,99.99
2018-03-22T11:12:57.985Z,99.99
2018-03-22T11:13:58.226Z,99.99
2018-03-22T11:14:57.954Z,99.99
2018-03-22T11:15:58.191Z,99.99
2018-03-22T11:16:57.917Z,99.99
2018-03-22T11:17:57.900Z,99.99
2018-03-22T11:18:57.886Z,99.99
2018-03-22T11:19:58.125Z,99.9
2018-03-22T11:20:57.851Z,98.91
2018-03-22T11:21:57.835Z,97.87
2018-03-22T11:22:58.076Z,99.01
2018-03-22T11:23:58.059Z,99.01
2018-03-22T11:24:58.044Z,97.68
2018-03-22T11:25:58.032Z,98.53
2018-03-22T11:26:58.012Z,97.96
2018-03-22T11:27:57.738Z,96.92
2018-03-22T11:28:57.979Z,97.2
2018-03-22T11:29:57.704Z,98.34
2018-03-22T11:30:57.945Z,96.54
2018-03-22T11:31:57.928Z,96.83
2018-03-22T11:32:57.912Z,97.72
2018-03-22T11:33:57.640Z,96.54
2018-03-22T11:34:57.623Z,98.15
2018-03-22T11:35:57.865Z,98.91
2018-03-22T11:36:57.860Z,97.68
2018-03-22T11:37:57.574Z,96.54
2018-03-22T11:38:57.816Z,96.83
2018-03-22T11:39:57.799Z,96.07
2018-03-22T11:40:57.529Z,95.97
2018-03-22T11:41:57.771Z,94.84
2018-03-22T11:42:57.494Z,95.03
2018-03-22T11:43:57.735Z,95.69
2018-03-22T11:44:57.719Z,95.4
2018-03-22T11:45:57.452Z,94.46
2018-03-22T11:46:57.690Z,95.5
2018-03-22T11:47:57.671Z,95.31
2018-03-22T11:48:57.659Z,94.93
2018-03-22T11:49:57.639Z,94.93
2018-03-22T11:50:57.365Z,93.51
2018-03-22T11:51:57.615Z,94.37
2018-03-22T11:52:57.335Z,93.23
2018-03-22T11:53:57.620Z,93.04
2018-03-22T11:54:57.559Z,93.13
2018-03-22T11:55:57.285Z,93.99
2018-03-22T11:56:57.527Z,94.37
2018-03-22T11:57:57.516Z,93.7
2018-03-22T11:58:57.499Z,93.13
2018-03-22T11:59:57.478Z,92.85
2018-03-22T12:00:57.462Z,93.32
2018-03-22T12:01:57.644Z,92.47
2018-03-22T12:02:57.175Z,93.18
2018-03-22T12:03:57.413Z,93.56
2018-03-22T12:04:57.400Z,93.66
2018-03-22T12:05:57.123Z,94.13
2018-03-22T12:06:57.364Z,93.99
2018-03-22T12:07:57.091Z,94.27
2018-03-22T12:08:57.331Z,93.89
2018-03-22T12:09:57.314Z,94.89
2018-03-22T12:10:57.298Z,96.07
2018-03-22T12:11:57.025Z,95.59
2018-03-22T12:12:57.265Z,93.8
2018-03-22T12:13:57.250Z,93.8
2018-03-22T12:14:57.233Z,93.61
2018-03-22T12:15:56.965Z,93.99
2018-03-22T12:16:57.200Z,94.18
2018-03-22T12:17:57.185Z,93.99
2018-03-22T12:18:57.170Z,94.84
2018-03-22T12:19:57.156Z,94.84
2018-03-22T12:20:57.135Z,95.03
2018-03-22T12:21:57.120Z,95.69
2018-03-22T12:22:56.846Z,95.78
2018-03-22T12:23:57.086Z,94.65
2018-03-22T12:24:56.812Z,95.31
2018-03-22T12:25:57.060Z,96.07
2018-03-22T12:26:57.053Z,96.07
2018-03-22T12:27:57.022Z,97.02
2018-03-22T12:28:57.007Z,97.39
2018-03-22T12:29:56.991Z,97.49
2018-03-22T12:30:56.974Z,97.39
2018-03-22T12:31:56.968Z,98.53
2018-03-22T12:32:56.943Z,99.85
2018-03-22T12:33:56.981Z,99.99
2018-03-22T12:34:56.651Z,99.99
2018-03-22T12:35:56.895Z,99.99
2018-03-22T12:36:56.879Z,99.99
2018-03-22T12:37:56.604Z,99.99
2018-03-22T12:38:56.589Z,99.99
2018-03-22T12:39:56.839Z,99.99
2018-03-22T12:40:56.561Z,99.99
2018-03-22T12:41:56.540Z,99.99
2018-03-22T12:42:56.781Z,99.99
2018-03-22T12:43:56.766Z,99.99
2018-03-22T12:44:56.751Z,99.99
2018-03-22T12:45:56.733Z,99.99
2018-03-22T12:46:56.460Z,99.99
2018-03-22T12:47:56.444Z,99.99
2018-03-22T12:48:56.428Z,99.99
2018-03-22T12:49:56.411Z,99.99
2018-03-22T12:50:56.665Z,99.99
2018-03-22T12:51:56.646Z,99.99
2018-03-22T12:52:56.621Z,99.99
2018-03-22T12:53:56.606Z,99.99
2018-03-22T12:54:56.592Z,99.99